createdAt,value
2023-03-16T00:00:38.197Z,9.82
2023-03-16T00:03:05.007Z,8.65
2023-03-16T00:05:32.162Z,8.85
2023-03-16T00:08:01.244Z,9.10
2023-03-16T00:10:30.092Z,9.02
2023-03-16T00:13:02.863Z,9.88
2023-03-16T00:15:31.635Z,8.57
2023-03-16T00:18:03.820Z,8.38
2023-03-16T00:20:33.749Z,8.27
2023-03-16T00:23:06.201Z,5.93
2023-03-16T00:25:35.032Z,8.20
2023-03-16T00:28:03.764Z,7.97
2023-03-16T00:30:32.744Z,7.38
2023-03-16T00:32:59.565Z,7.80
2023-03-16T00:35:34.772Z,8.10
2023-03-16T00:38:04.058Z,8.15
2023-03-16T00:40:30.822Z,7.40
2023-03-16T00:42:59.895Z,8.60
2023-03-16T00:45:26.619Z,7.65
2023-03-16T00:47:54.349Z,7.32
2023-03-16T00:50:23.139Z,7.32
2023-03-16T00:52:49.848Z,7.53
2023-03-16T00:55:19.686Z,7.47
2023-03-16T00:57:46.438Z,7.43
2023-03-16T01:00:16.813Z,7.50
2023-03-16T01:02:46.625Z,7.00
2023-03-16T01:05:16.527Z,7.85
2023-03-16T01:07:45.821Z,7.10
2023-03-16T01:10:12.829Z,8.02
2023-03-16T01:12:41.619Z,6.80
2023-03-16T01:15:12.055Z,7.00
2023-03-16T01:17:43.866Z,5.37
2023-03-16T01:20:15.104Z,6.82
2023-03-16T01:25:13.433Z,6.60
2023-03-16T01:27:45.441Z,6.55
2023-03-16T01:30:14.722Z,6.05
2023-03-16T01:32:46.225Z,6.60
2023-03-16T01:35:13.102Z,6.47
2023-03-16T01:37:41.977Z,6.07
2023-03-16T01:40:11.985Z,6.10
2023-03-16T01:42:47.960Z,6.65
2023-03-16T01:45:53.025Z,6.28
2023-03-16T01:48:23.156Z,6.35
2023-03-16T01:50:53.791Z,6.68
2023-03-16T01:53:22.913Z,6.20
2023-03-16T01:55:49.638Z,6.10
2023-03-16T01:58:18.605Z,6.13
2023-03-16T02:00:49.958Z,5.97
2023-03-16T02:03:17.617Z,6.25
2023-03-16T02:05:52.884Z,6.35
2023-03-16T02:08:24.631Z,5.93
2023-03-16T02:10:54.735Z,5.57
2023-03-16T02:13:22.760Z,4.63
2023-03-16T02:15:51.828Z,5.55
2023-03-16T02:18:23.952Z,5.80
2023-03-16T02:21:25.608Z,5.93
2023-03-16T02:26:24.906Z,5.63
2023-03-16T02:29:06.872Z,5.18
2023-03-16T02:31:35.803Z,5.45
2023-03-16T02:34:08.028Z,6.03
2023-03-16T02:36:37.363Z,5.78
2023-03-16T02:39:06.718Z,5.30
2023-03-16T02:41:35.695Z,5.35
2023-03-16T02:44:24.808Z,5.15
2023-03-16T02:46:52.785Z,5.30
2023-03-16T02:49:25.594Z,5.13
2023-03-16T02:51:54.924Z,5.00
2023-03-16T02:54:21.613Z,4.85
2023-03-16T02:56:51.649Z,4.90
2023-03-16T02:59:18.448Z,5.10
2023-03-16T03:01:47.294Z,5.10
2023-03-16T03:04:14.044Z,5.20
2023-03-16T03:06:41.890Z,4.97
2023-03-16T03:09:11.819Z,4.90
2023-03-16T03:11:38.556Z,4.93
2023-03-16T03:14:09.869Z,5.28
2023-03-16T03:19:10.481Z,4.55
2023-03-16T03:21:39.353Z,4.60
2023-03-16T03:24:06.370Z,4.50
2023-03-16T03:26:35.356Z,4.50
2023-03-16T03:29:02.467Z,4.25
2023-03-16T03:31:29.186Z,4.50
2023-03-16T03:33:58.081Z,4.35
2023-03-16T03:36:26.932Z,4.28
2023-03-16T03:38:55.750Z,4.25
2023-03-16T03:41:22.565Z,4.88
2023-03-16T03:43:54.590Z,4.25
2023-03-16T03:46:23.462Z,4.35
2023-03-16T03:48:50.225Z,4.35
2023-03-16T03:51:19.047Z,4.25
2023-03-16T03:53:47.868Z,4.35
2023-03-16T03:56:19.189Z,4.47
2023-03-16T03:58:48.062Z,3.90
2023-03-16T04:01:14.665Z,4.45
2023-03-16T04:03:45.221Z,4.10
2023-03-16T04:06:14.101Z,3.90
2023-03-16T04:08:40.750Z,4.47
2023-03-16T04:11:07.532Z,4.00
2023-03-16T04:13:36.612Z,4.13
2023-03-16T04:16:03.336Z,4.22
2023-03-16T04:18:32.766Z,3.90
2023-03-16T04:20:59.456Z,4.03
2023-03-16T04:23:26.111Z,4.25
2023-03-16T04:25:52.798Z,3.80
2023-03-16T04:28:21.514Z,3.90
2023-03-16T04:30:50.661Z,3.78
2023-03-16T04:33:17.420Z,3.88
2023-03-16T04:35:48.774Z,3.45
2023-03-16T04:38:17.750Z,4.00
2023-03-16T04:40:46.777Z,3.80
2023-03-16T04:43:17.433Z,3.97
2023-03-16T04:45:49.414Z,3.55
2023-03-16T04:48:18.386Z,3.75
2023-03-16T04:50:45.170Z,3.50
2023-03-16T04:53:14.797Z,3.70
2023-03-16T04:55:42.099Z,3.63
2023-03-16T04:58:11.309Z,3.92
2023-03-16T05:00:40.138Z,3.45
2023-03-16T05:03:10.370Z,3.40
2023-03-16T05:05:39.975Z,3.72
2023-03-16T05:08:10.981Z,3.63
2023-03-16T05:10:42.932Z,3.42
2023-03-16T05:13:14.868Z,3.20
2023-03-16T05:15:43.791Z,3.22
2023-03-16T05:18:10.423Z,3.50
2023-03-16T05:20:42.176Z,3.55
2023-03-16T05:23:11.745Z,3.10
2023-03-16T05:25:40.765Z,3.42
2023-03-16T05:28:07.452Z,3.50
2023-03-16T05:30:38.742Z,3.47
2023-03-16T05:35:37.005Z,3.22
2023-03-16T05:38:09.957Z,3.60
2023-03-16T05:40:37.318Z,3.25
2023-03-16T05:43:04.596Z,3.60
2023-03-16T05:45:31.382Z,3.00
2023-03-16T05:48:00.191Z,3.22
2023-03-16T05:50:29.507Z,3.30
2023-03-16T05:53:01.106Z,3.15
2023-03-16T05:55:29.870Z,3.30
2023-03-16T05:57:58.784Z,3.45
2023-03-16T06:00:26.102Z,2.85
2023-03-16T06:02:55.516Z,3.20
2023-03-16T06:05:24.432Z,3.05
2023-03-16T06:07:52.156Z,3.17
2023-03-16T06:10:18.958Z,3.15
2023-03-16T06:12:48.549Z,3.20
2023-03-16T06:15:17.446Z,2.80
2023-03-16T06:17:44.788Z,3.05
2023-03-16T06:20:13.111Z,2.92
2023-03-16T06:22:43.127Z,3.00
2023-03-16T06:25:11.024Z,3.13
2023-03-16T06:27:40.246Z,3.30
2023-03-16T06:30:08.765Z,2.90
2023-03-16T06:32:36.388Z,2.83
2023-03-16T06:35:03.678Z,2.95
2023-03-16T06:37:33.591Z,3.00
2023-03-16T06:40:00.429Z,3.10
2023-03-16T06:42:27.216Z,3.13
2023-03-16T06:44:53.975Z,2.92
2023-03-16T06:47:25.309Z,2.90
2023-03-16T06:49:54.372Z,2.55
2023-03-16T06:52:23.682Z,2.35
2023-03-16T06:54:53.091Z,1.88
2023-03-16T06:57:25.023Z,2.10
2023-03-16T06:59:55.352Z,1.90
2023-03-16T07:02:24.319Z,2.30
2023-03-16T07:04:53.101Z,2.17
2023-03-16T07:07:21.978Z,1.92
2023-03-16T07:09:50.859Z,1.73
2023-03-16T07:17:45.381Z,2.00
2023-03-16T07:20:14.753Z,1.80
2023-03-16T07:22:43.716Z,2.38
2023-03-16T07:25:16.180Z,2.28
2023-03-16T07:27:50.023Z,1.88
2023-03-16T07:30:19.039Z,2.00
2023-03-16T07:32:45.796Z,2.17
2023-03-16T07:35:17.179Z,1.98
2023-03-16T07:40:14.529Z,1.95
2023-03-16T07:42:45.870Z,1.90
2023-03-16T07:47:41.795Z,1.92
2023-03-16T07:50:11.624Z,1.80
2023-03-16T07:52:38.347Z,2.05
2023-03-16T07:55:05.490Z,1.90
2023-03-16T07:57:34.593Z,1.65
2023-03-16T08:00:09.216Z,1.85
2023-03-16T08:02:38.387Z,1.85
2023-03-16T08:05:10.095Z,1.90
2023-03-16T08:07:38.900Z,1.88
2023-03-16T08:10:08.241Z,1.90
2023-03-16T08:12:37.232Z,1.77
2023-03-16T08:15:05.959Z,2.20
2023-03-16T08:17:32.648Z,1.92
2023-03-16T08:19:59.789Z,2.90
2023-03-16T08:25:10.854Z,2.47
2023-03-16T08:27:43.014Z,2.67
2023-03-16T08:30:13.817Z,2.28
2023-03-16T08:32:41.139Z,2.43
2023-03-16T08:35:09.704Z,2.30
2023-03-16T08:37:39.505Z,1.92
2023-03-16T08:40:14.280Z,2.00
2023-03-16T08:42:43.128Z,2.00
2023-03-16T08:45:14.210Z,2.00
2023-03-16T08:50:12.074Z,2.00
2023-03-16T08:52:41.061Z,1.83
2023-03-16T08:55:10.453Z,1.98
2023-03-16T08:57:38.797Z,2.15
2023-03-16T09:00:15.357Z,1.95
2023-03-16T09:02:48.133Z,2.15
2023-03-16T09:05:16.052Z,1.95
2023-03-16T09:07:43.706Z,2.20
2023-03-16T09:10:13.986Z,2.10
2023-03-16T09:12:41.046Z,1.90
2023-03-16T09:15:12.377Z,1.95
2023-03-16T09:20:22.419Z,1.90
2023-03-16T09:22:52.579Z,1.92
2023-03-16T09:25:22.713Z,1.80
2023-03-16T09:27:51.569Z,1.88
2023-03-16T09:30:20.750Z,1.90
2023-03-16T09:32:49.013Z,2.00
2023-03-16T09:35:18.133Z,2.20
2023-03-16T09:38:05.216Z,2.10
2023-03-16T09:40:33.313Z,1.95
2023-03-16T09:43:26.519Z,2.10
2023-03-16T09:46:08.530Z,1.90
2023-03-16T09:48:40.872Z,2.10
2023-03-16T09:51:13.554Z,2.20
2023-03-16T09:53:40.316Z,2.08
2023-03-16T09:56:17.018Z,2.00
2023-03-16T09:58:43.939Z,2.00
2023-03-16T10:01:16.660Z,2.10
2023-03-16T10:04:08.656Z,2.10
2023-03-16T10:06:38.869Z,2.05
2023-03-16T10:09:38.428Z,2.10
2023-03-16T10:12:06.303Z,1.90
2023-03-16T10:14:49.590Z,1.75
2023-03-16T10:17:30.889Z,2.08
2023-03-16T10:22:27.170Z,2.00
2023-03-16T10:24:59.766Z,1.88
2023-03-16T10:27:31.598Z,2.10
2023-03-16T10:29:58.476Z,2.30
2023-03-16T10:32:29.559Z,1.98
2023-03-16T10:37:29.618Z,1.90
2023-03-16T10:40:01.696Z,2.20
2023-03-16T10:42:30.766Z,2.25
2023-03-16T10:45:02.658Z,2.05
2023-03-16T10:47:31.694Z,2.30
2023-03-16T10:50:14.694Z,1.90
2023-03-16T10:52:47.346Z,1.92
2023-03-16T10:55:21.477Z,2.08
2023-03-16T10:57:50.040Z,2.30
2023-03-16T11:00:20.961Z,2.22
2023-03-16T11:02:54.384Z,2.38
2023-03-16T11:05:29.668Z,2.00
2023-03-16T11:08:02.661Z,1.90
2023-03-16T11:10:36.212Z,1.90
2023-03-16T11:13:17.731Z,2.00
2023-03-16T11:16:01.685Z,2.00
2023-03-16T11:18:32.568Z,1.98
2023-03-16T11:21:03.298Z,2.00
2023-03-16T11:23:32.920Z,2.03
2023-03-16T11:26:02.063Z,2.00
2023-03-16T11:28:38.933Z,1.90
2023-03-16T11:31:11.941Z,1.98
2023-03-16T11:33:40.874Z,2.20
2023-03-16T11:36:29.988Z,2.03
2023-03-16T11:39:04.742Z,2.25
2023-03-16T11:41:43.595Z,2.20
2023-03-16T11:44:37.792Z,2.30
2023-03-16T11:47:16.537Z,2.50
2023-03-16T11:50:03.789Z,2.13
2023-03-16T11:52:52.113Z,2.40
2023-03-16T11:55:30.985Z,2.50
2023-03-16T11:58:07.288Z,2.35
2023-03-16T12:00:59.090Z,2.30
2023-03-16T12:03:31.990Z,2.30
2023-03-16T12:06:17.022Z,2.33
2023-03-16T12:08:53.735Z,2.40
2023-03-16T12:11:31.170Z,2.17
2023-03-16T12:14:19.191Z,2.28
2023-03-16T12:17:02.743Z,2.30
2023-03-16T12:19:30.625Z,2.30
2023-03-16T12:22:33.830Z,2.13
2023-03-16T12:25:00.656Z,2.30
2023-03-16T12:27:33.491Z,2.50
2023-03-16T12:30:28.263Z,2.50
2023-03-16T12:33:34.301Z,2.50
2023-03-16T12:36:17.004Z,2.10
2023-03-16T12:38:53.384Z,2.53
2023-03-16T12:42:08.546Z,2.20
2023-03-16T12:44:57.434Z,2.08
2023-03-16T12:47:32.180Z,2.30
2023-03-16T12:50:12.748Z,2.17
2023-03-16T12:52:49.936Z,2.10
2023-03-16T12:55:34.916Z,2.40
2023-03-16T12:58:02.988Z,1.92
2023-03-16T13:00:57.043Z,2.20
2023-03-16T13:03:25.326Z,2.20
2023-03-16T13:06:03.426Z,2.10
2023-03-16T13:08:41.417Z,2.35
2023-03-16T13:11:10.018Z,2.13
2023-03-16T13:13:52.255Z,2.28
2023-03-16T13:16:38.547Z,2.30
2023-03-16T13:19:17.871Z,2.03
2023-03-16T13:21:46.670Z,2.10
2023-03-16T13:24:30.394Z,2.10
2023-03-16T13:27:02.794Z,2.10
2023-03-16T13:29:31.193Z,2.08
2023-03-16T13:32:08.758Z,2.20
2023-03-16T13:34:44.885Z,2.22
2023-03-16T13:37:14.598Z,2.15
2023-03-16T13:39:41.728Z,2.30
2023-03-16T13:42:08.394Z,2.33
2023-03-16T13:44:35.030Z,2.35
2023-03-16T13:47:05.615Z,2.30
2023-03-16T13:49:34.510Z,2.30
2023-03-16T13:52:06.063Z,2.58
2023-03-16T13:54:32.830Z,2.42
2023-03-16T13:57:03.062Z,2.28
2023-03-16T13:59:35.009Z,2.30
2023-03-16T14:02:04.069Z,2.40
2023-03-16T14:04:36.081Z,2.28
2023-03-16T14:07:03.753Z,2.35
2023-03-16T14:09:34.619Z,2.05
2023-03-16T14:12:01.647Z,2.28
2023-03-16T14:14:32.408Z,2.20
2023-03-16T14:17:10.651Z,2.20
2023-03-16T14:19:49.984Z,2.40
2023-03-16T14:22:23.480Z,2.40
2023-03-16T14:24:59.379Z,2.22
2023-03-16T14:27:29.869Z,2.30
2023-03-16T14:30:01.676Z,2.30
2023-03-16T14:32:30.651Z,2.20
2023-03-16T14:35:20.586Z,3.88
2023-03-16T14:37:49.437Z,2.50
2023-03-16T14:40:30.860Z,2.67
2023-03-16T14:42:59.422Z,2.50
2023-03-16T14:45:38.455Z,2.67
2023-03-16T14:48:16.992Z,2.50
2023-03-16T14:50:43.776Z,2.45
2023-03-16T14:53:10.582Z,3.00
2023-03-16T14:55:39.640Z,2.70
2023-03-16T14:58:10.003Z,3.22
2023-03-16T15:00:50.230Z,2.80
2023-03-16T15:03:20.677Z,5.20
2023-03-16T15:05:48.664Z,3.72
2023-03-16T15:08:23.722Z,3.33
2023-03-16T15:10:52.541Z,3.60
2023-03-16T15:13:40.760Z,3.83
2023-03-16T15:16:11.481Z,3.42
2023-03-16T15:18:40.670Z,3.70
2023-03-16T15:21:26.287Z,3.75
2023-03-16T15:23:53.138Z,4.00
2023-03-16T15:26:24.907Z,4.15
2023-03-16T15:28:52.035Z,3.97
2023-03-16T15:31:21.591Z,4.10
2023-03-16T15:33:48.369Z,3.50
2023-03-16T15:36:18.909Z,4.38
2023-03-16T15:38:49.859Z,3.87
2023-03-16T15:41:16.519Z,3.58
2023-03-16T15:43:45.533Z,4.18
2023-03-16T15:46:18.063Z,4.35
2023-03-16T15:48:47.812Z,3.92
2023-03-16T15:51:27.568Z,4.00
2023-03-16T15:53:57.013Z,3.72
2023-03-16T15:56:30.264Z,4.10
2023-03-16T15:59:04.255Z,4.07
2023-03-16T16:01:37.757Z,4.15
2023-03-16T16:04:05.432Z,3.80
2023-03-16T16:06:32.531Z,4.15
2023-03-16T16:09:01.690Z,8.77
2023-03-16T16:11:28.358Z,8.18
2023-03-16T16:13:56.002Z,7.75
2023-03-16T16:16:25.233Z,6.82
2023-03-16T16:18:51.963Z,6.20
2023-03-16T16:21:23.159Z,6.03
2023-03-16T16:23:53.368Z,5.60
2023-03-16T16:26:50.882Z,5.47
2023-03-16T16:29:30.249Z,5.60
2023-03-16T16:31:59.143Z,5.20
2023-03-16T16:34:31.181Z,5.28
2023-03-16T16:36:57.912Z,5.28
2023-03-16T16:39:24.887Z,5.15
2023-03-16T16:41:55.030Z,4.97
2023-03-16T16:44:23.801Z,5.63
2023-03-16T16:46:50.884Z,5.18
2023-03-16T16:49:31.291Z,5.07
2023-03-16T16:51:58.424Z,5.05
2023-03-16T16:54:27.474Z,4.85
2023-03-16T16:56:57.661Z,4.53
2023-03-16T16:59:32.472Z,5.40
2023-03-16T17:02:03.966Z,5.40
2023-03-16T17:04:30.907Z,5.13
2023-03-16T17:07:02.080Z,4.72
2023-03-16T17:09:31.298Z,4.80
2023-03-16T17:11:59.172Z,5.22
2023-03-16T17:14:28.471Z,5.28
2023-03-16T17:16:58.389Z,5.57
2023-03-16T17:19:29.196Z,5.43
2023-03-16T17:21:57.480Z,4.60
2023-03-16T17:24:24.668Z,5.03
2023-03-16T17:26:56.049Z,5.22
2023-03-16T17:29:36.616Z,5.00
2023-03-16T17:32:09.398Z,5.10
2023-03-16T17:34:38.422Z,5.10
2023-03-16T17:37:09.932Z,4.88
2023-03-16T17:39:37.100Z,6.10
2023-03-16T17:42:18.479Z,5.32
2023-03-16T17:44:52.150Z,5.80
2023-03-16T17:47:25.291Z,6.65
2023-03-16T17:49:53.816Z,5.57
2023-03-16T17:52:25.801Z,5.68
2023-03-16T17:54:53.249Z,5.93
2023-03-16T17:57:32.726Z,6.43
2023-03-16T18:00:02.269Z,6.20
2023-03-16T18:02:51.436Z,7.13
2023-03-16T18:05:32.659Z,6.00
2023-03-16T18:08:16.802Z,6.63
2023-03-16T18:10:46.743Z,6.20
2023-03-16T18:13:17.790Z,6.00
2023-03-16T18:15:45.142Z,5.60
2023-03-16T18:18:18.060Z,6.07
2023-03-16T18:20:46.904Z,6.38
2023-03-16T18:23:24.201Z,5.75
2023-03-16T18:25:52.652Z,6.15
2023-03-16T18:28:22.021Z,5.60
2023-03-16T18:30:52.483Z,5.65
2023-03-16T18:33:25.684Z,5.53
2023-03-16T18:35:53.823Z,5.60
2023-03-16T18:38:26.791Z,5.38
2023-03-16T18:40:53.399Z,6.25
2023-03-16T18:43:20.186Z,6.72
2023-03-16T18:45:46.960Z,5.93
2023-03-16T18:48:23.424Z,5.90
2023-03-16T18:50:50.123Z,6.63
2023-03-16T18:53:16.970Z,6.88
2023-03-16T18:55:46.402Z,6.68
2023-03-16T18:58:17.912Z,6.70
2023-03-16T19:00:46.313Z,6.15
2023-03-16T19:03:23.579Z,6.30
2023-03-16T19:05:50.337Z,6.35
2023-03-16T19:08:22.708Z,7.05
2023-03-16T19:10:56.472Z,6.68
2023-03-16T19:13:24.248Z,6.60
2023-03-16T19:15:54.286Z,7.57
2023-03-16T19:18:22.617Z,6.75
2023-03-16T19:20:50.320Z,7.20
2023-03-16T19:23:21.802Z,7.18
2023-03-16T19:25:56.083Z,7.55
2023-03-16T19:28:36.786Z,7.68
2023-03-16T19:31:15.530Z,8.40
2023-03-16T19:33:42.369Z,8.23
2023-03-16T19:36:30.347Z,8.43
2023-03-16T19:38:57.749Z,8.85
2023-03-16T19:41:31.417Z,8.02
2023-03-16T19:44:01.063Z,8.48
2023-03-16T19:46:28.188Z,9.07
2023-03-16T19:48:57.248Z,8.63
2023-03-16T19:51:25.998Z,9.60
2023-03-16T19:53:55.080Z,9.80
2023-03-16T19:56:21.902Z,9.43
2023-03-16T19:58:50.724Z,10.20
2023-03-16T20:01:19.425Z,10.77
2023-03-16T20:03:48.944Z,10.63
2023-03-16T20:06:19.309Z,10.57
2023-03-16T20:08:48.451Z,8.23
2023-03-16T20:11:19.588Z,10.43
2023-03-16T20:13:46.863Z,10.82
2023-03-16T20:16:22.056Z,9.95
2023-03-16T20:18:52.109Z,10.25
2023-03-16T20:21:18.811Z,10.10
2023-03-16T20:23:45.659Z,11.02
2023-03-16T20:26:26.856Z,10.50
2023-03-16T20:28:53.750Z,10.75
2023-03-16T20:31:25.113Z,10.00
2023-03-16T20:33:54.702Z,10.10
2023-03-16T20:36:23.997Z,10.32
2023-03-16T20:38:52.968Z,10.73
2023-03-16T20:41:24.489Z,10.30
2023-03-16T20:43:51.724Z,10.45
2023-03-16T20:46:26.204Z,10.43
2023-03-16T20:48:53.494Z,10.55
2023-03-16T20:51:20.204Z,10.30
2023-03-16T20:53:47.458Z,10.40
2023-03-16T20:56:15.350Z,10.38
2023-03-16T20:58:44.366Z,10.55
2023-03-16T21:01:17.828Z,10.25
2023-03-16T21:03:54.333Z,10.35
2023-03-16T21:06:24.358Z,10.60
2023-03-16T21:08:54.511Z,10.38
2023-03-16T21:11:37.901Z,9.38
2023-03-16T21:14:06.462Z,10.10
2023-03-16T21:16:33.455Z,9.80
2023-03-16T21:19:00.122Z,10.55
2023-03-16T21:21:26.938Z,10.15
2023-03-16T21:23:55.972Z,10.13
2023-03-16T21:26:26.384Z,9.32
2023-03-16T21:28:57.942Z,9.73
2023-03-16T21:31:24.807Z,10.20
2023-03-16T21:33:54.465Z,9.90
2023-03-16T21:36:22.600Z,8.77
2023-03-16T21:38:49.987Z,10.00
2023-03-16T21:41:21.431Z,9.68
2023-03-16T21:43:49.923Z,10.02
2023-03-16T21:46:18.440Z,9.05
2023-03-16T21:48:48.956Z,10.00
2023-03-16T21:51:20.201Z,9.07
2023-03-16T21:56:22.550Z,9.23
2023-03-16T21:58:51.975Z,9.63
2023-03-16T22:01:25.856Z,9.68
2023-03-16T22:03:58.363Z,9.43
2023-03-16T22:06:31.559Z,9.48
2023-03-16T22:08:58.616Z,9.50
2023-03-16T22:11:29.977Z,9.85
2023-03-16T22:13:57.811Z,10.18
2023-03-16T22:16:30.030Z,8.88
2023-03-16T22:19:00.447Z,6.22
2023-03-16T22:21:42.288Z,6.15
2023-03-16T22:24:18.840Z,5.80
2023-03-16T22:26:49.284Z,5.28
2023-03-16T22:29:28.219Z,5.17
2023-03-16T22:32:05.006Z,4.75
2023-03-16T22:34:49.726Z,4.43
2023-03-16T22:37:23.189Z,4.30
2023-03-16T22:39:54.591Z,4.20
2023-03-16T22:42:38.063Z,4.72
2023-03-16T22:45:21.436Z,4.65
2023-03-16T22:47:50.954Z,4.13
2023-03-16T22:50:22.202Z,4.05
2023-03-16T22:55:20.470Z,3.90
2023-03-16T22:57:47.426Z,4.28
2023-03-16T23:00:14.515Z,3.72
2023-03-16T23:02:41.357Z,4.15
2023-03-16T23:05:25.652Z,3.72
2023-03-16T23:07:54.658Z,3.90
2023-03-16T23:10:23.334Z,3.80
2023-03-16T23:12:53.273Z,4.18
2023-03-16T23:15:25.567Z,3.50
2023-03-16T23:17:54.609Z,4.10
2023-03-16T23:20:28.781Z,4.00
2023-03-16T23:22:55.669Z,3.90
2023-03-16T23:25:25.105Z,4.00
2023-03-16T23:27:54.567Z,3.72
2023-03-16T23:30:27.459Z,3.33
2023-03-16T23:32:54.532Z,3.72
2023-03-16T23:35:24.318Z,3.70
2023-03-16T23:37:53.101Z,3.55
2023-03-16T23:40:22.108Z,3.80
2023-03-16T23:42:53.068Z,3.70
2023-03-16T23:45:42.722Z,3.70
2023-03-16T23:48:13.777Z,3.85
2023-03-16T23:50:40.991Z,3.50
2023-03-16T23:53:15.079Z,3.60
2023-03-16T23:55:44.238Z,3.60
2023-03-16T23:58:13.173Z,3.40
